Terminal Aerodrome Forecast
Issued by NWS Pocatello, ID

Home | Current Version | Previous Version | Text Only | Print | Product List | Glossary On
Versions: 1 2 3 4 5 6 7 8 9 10 11 12 13
000
FTUS45 KPIH 052336
TAFBYI
TAF
KBYI 052336Z 0600/0624 23010KT P6SM VCSH SCT090 BKN160
     FM060800 24010KT P6SM -SHRA FEW030 SCT070 BKN110
     FM062000 23011KT P6SM VCTS BKN090CB OVC140=

USA.gov is the U.S. government's official web portal to all federal, state and local government web resources and services.